createdAt,value
2023-03-03T00:01:21.546Z,5.79
2023-03-03T00:03:49.920Z,5.97
2023-03-03T00:06:18.145Z,5.69
2023-03-03T00:08:46.621Z,5.75
2023-03-03T00:11:15.280Z,5.62
2023-03-03T00:13:48.655Z,6.01
2023-03-03T00:16:25.004Z,5.91
2023-03-03T00:18:53.999Z,6.02
2023-03-03T00:21:30.351Z,5.92
2023-03-03T00:24:19.835Z,5.97
2023-03-03T00:26:49.065Z,5.96
2023-03-03T00:29:35.984Z,5.89
2023-03-03T00:32:24.136Z,5.87
2023-03-03T00:34:53.837Z,5.83
2023-03-03T00:37:30.551Z,5.78
2023-03-03T00:40:10.781Z,5.76
2023-03-03T00:42:38.950Z,5.60
2023-03-03T00:45:28.676Z,5.60
2023-03-03T00:47:57.998Z,5.60
2023-03-03T00:50:34.744Z,5.57
2023-03-03T00:53:13.117Z,5.51
2023-03-03T00:55:41.632Z,5.40
2023-03-03T00:58:10.378Z,5.24
2023-03-03T01:00:41.132Z,5.29
2023-03-03T01:03:14.623Z,5.13
2023-03-03T01:05:43.045Z,4.97
2023-03-03T01:08:11.490Z,4.92
2023-03-03T01:10:43.583Z,4.95
2023-03-03T01:13:12.250Z,5.01
2023-03-03T01:15:42.515Z,4.87
2023-03-03T01:18:11.643Z,5.05
2023-03-03T01:20:40.022Z,5.03
2023-03-03T01:23:08.813Z,5.01
2023-03-03T01:25:38.163Z,5.18
2023-03-03T01:28:07.116Z,4.99
2023-03-03T01:30:35.407Z,5.26
2023-03-03T01:33:05.261Z,5.19
2023-03-03T01:35:33.543Z,5.29
2023-03-03T01:38:02.255Z,5.33
2023-03-03T01:40:32.084Z,5.33
2023-03-03T01:43:01.058Z,5.31
2023-03-03T01:45:30.364Z,5.39
2023-03-03T01:48:02.837Z,5.21
2023-03-03T01:50:46.884Z,5.24
2023-03-03T01:53:18.491Z,5.32
2023-03-03T01:55:48.504Z,5.33
2023-03-03T01:58:20.305Z,5.27
2023-03-03T02:00:51.870Z,5.53
2023-03-03T02:03:21.909Z,5.35
2023-03-03T02:05:54.491Z,5.55
2023-03-03T02:08:29.941Z,5.47
2023-03-03T02:10:58.870Z,5.37
2023-03-03T02:13:27.124Z,5.40
2023-03-03T02:15:56.810Z,5.59
2023-03-03T02:18:25.306Z,5.48
2023-03-03T02:20:58.989Z,5.42
2023-03-03T02:23:32.400Z,5.47
2023-03-03T02:26:07.537Z,5.53
2023-03-03T02:28:37.036Z,5.64
2023-03-03T02:31:08.261Z,5.63
2023-03-03T02:33:39.061Z,5.58
2023-03-03T02:36:07.677Z,5.69
2023-03-03T02:38:40.331Z,5.46
2023-03-03T02:41:15.498Z,5.47
2023-03-03T02:43:48.011Z,5.47
2023-03-03T02:46:16.528Z,5.61
2023-03-03T02:48:44.678Z,5.46
2023-03-03T02:51:13.133Z,5.57
2023-03-03T02:53:41.553Z,5.49
2023-03-03T02:56:11.374Z,5.35
2023-03-03T02:58:39.780Z,5.25
2023-03-03T03:01:10.511Z,5.41
2023-03-03T03:03:39.038Z,5.15
2023-03-03T03:06:07.507Z,5.32
2023-03-03T03:08:35.729Z,5.60
2023-03-03T03:11:04.053Z,5.30
2023-03-03T03:13:35.060Z,5.27
2023-03-03T03:16:03.638Z,5.41
2023-03-03T03:18:32.125Z,5.40
2023-03-03T03:21:07.535Z,5.24
2023-03-03T03:23:36.591Z,5.45
2023-03-03T03:26:05.956Z,5.12
2023-03-03T03:28:37.170Z,5.41
2023-03-03T03:31:06.443Z,5.34
2023-03-03T03:33:35.394Z,5.27
2023-03-03T03:36:04.654Z,5.51
2023-03-03T03:38:33.928Z,5.43
2023-03-03T03:41:02.119Z,5.45
2023-03-03T03:43:32.359Z,5.62
2023-03-03T03:46:02.300Z,5.52
2023-03-03T03:48:30.727Z,5.41
2023-03-03T03:50:59.057Z,5.47
2023-03-03T03:53:27.925Z,5.54
2023-03-03T03:55:56.469Z,5.54
2023-03-03T03:58:25.141Z,5.46
2023-03-03T04:00:53.475Z,5.57
2023-03-03T04:03:23.698Z,5.51
2023-03-03T04:05:55.328Z,5.53
2023-03-03T04:08:23.999Z,5.46
2023-03-03T04:10:52.519Z,5.51
2023-03-03T04:13:21.248Z,5.55
2023-03-03T04:15:50.421Z,5.44
2023-03-03T04:18:19.825Z,5.41
2023-03-03T04:20:52.442Z,5.44
2023-03-03T04:23:20.811Z,5.53
2023-03-03T04:25:49.734Z,5.56
2023-03-03T04:28:18.558Z,5.60
2023-03-03T04:30:46.937Z,5.63
2023-03-03T04:33:15.057Z,5.64
2023-03-03T04:35:43.284Z,5.66
2023-03-03T04:38:12.848Z,5.47
2023-03-03T04:40:42.049Z,5.49
2023-03-03T04:43:11.154Z,5.62
2023-03-03T04:45:39.779Z,5.70
2023-03-03T04:48:08.499Z,5.68
2023-03-03T04:50:36.595Z,5.68
2023-03-03T04:53:04.829Z,5.84
2023-03-03T04:55:34.921Z,5.74
2023-03-03T04:58:03.508Z,5.79
2023-03-03T05:00:31.836Z,5.69
2023-03-03T05:03:00.112Z,5.89
2023-03-03T05:05:28.692Z,5.70
2023-03-03T05:07:57.132Z,5.76
2023-03-03T05:10:25.575Z,5.95
2023-03-03T05:12:55.264Z,5.94
2023-03-03T05:15:23.662Z,5.95
2023-03-03T05:17:53.584Z,5.84
2023-03-03T05:20:21.998Z,5.96
2023-03-03T05:22:51.500Z,6.02
2023-03-03T05:25:20.276Z,5.92
2023-03-03T05:27:48.668Z,5.77
2023-03-03T05:30:26.119Z,5.66
2023-03-03T05:32:55.191Z,5.95
2023-03-03T05:35:23.814Z,5.89
2023-03-03T05:37:52.850Z,5.79
2023-03-03T05:40:21.295Z,5.88
2023-03-03T05:42:49.994Z,5.89
2023-03-03T05:45:21.384Z,5.87
2023-03-03T05:47:49.881Z,5.55
2023-03-03T05:50:19.165Z,5.99
2023-03-03T05:52:49.378Z,5.94
2023-03-03T05:55:18.263Z,6.00
2023-03-03T05:57:47.025Z,6.15
2023-03-03T06:00:16.409Z,5.98
2023-03-03T06:02:46.342Z,5.97
2023-03-03T06:05:14.678Z,6.08
2023-03-03T06:07:43.252Z,5.84
2023-03-03T06:10:13.061Z,5.83
2023-03-03T06:12:42.259Z,5.84
2023-03-03T06:15:13.838Z,5.86
2023-03-03T06:17:42.134Z,6.04
2023-03-03T06:20:15.554Z,5.89
2023-03-03T06:22:43.850Z,6.07
2023-03-03T06:25:12.406Z,6.02
2023-03-03T06:27:40.946Z,5.83
2023-03-03T06:30:10.447Z,6.11
2023-03-03T06:32:42.381Z,5.72
2023-03-03T06:35:10.885Z,6.11
2023-03-03T06:37:40.912Z,6.19
2023-03-03T06:40:10.906Z,6.03
2023-03-03T06:42:39.369Z,6.14
2023-03-03T06:45:08.355Z,6.14
2023-03-03T06:47:36.802Z,6.11
2023-03-03T06:50:05.447Z,6.14
2023-03-03T06:52:33.897Z,6.33
2023-03-03T06:55:11.844Z,6.36
2023-03-03T06:57:41.291Z,6.40
2023-03-03T07:00:18.487Z,6.46
2023-03-03T07:02:46.881Z,6.14
2023-03-03T07:05:17.250Z,6.35
2023-03-03T07:07:46.449Z,6.50
2023-03-03T07:10:23.305Z,6.43
2023-03-03T07:12:52.032Z,6.53
2023-03-03T07:15:24.484Z,6.53
2023-03-03T07:17:58.273Z,6.67
2023-03-03T07:20:31.316Z,6.69
2023-03-03T07:22:59.804Z,6.13
2023-03-03T07:25:33.085Z,6.55
2023-03-03T07:28:12.150Z,6.40
2023-03-03T07:30:40.619Z,6.67
2023-03-03T07:33:19.108Z,6.65
2023-03-03T07:35:48.467Z,6.66
2023-03-03T07:38:24.693Z,6.55
2023-03-03T07:40:56.026Z,6.84
2023-03-03T07:43:33.180Z,6.60
2023-03-03T07:46:06.016Z,6.74
2023-03-03T07:48:37.337Z,7.23
2023-03-03T07:51:13.155Z,6.96
2023-03-03T07:53:41.444Z,6.77
2023-03-03T07:56:22.519Z,6.88
2023-03-03T07:58:51.023Z,7.34
2023-03-03T08:01:33.173Z,7.04
2023-03-03T08:04:01.585Z,7.33
2023-03-03T08:06:46.770Z,7.31
2023-03-03T08:09:30.976Z,7.56
2023-03-03T08:12:03.277Z,7.55
2023-03-03T08:14:32.990Z,7.46
2023-03-03T08:17:02.104Z,7.37
2023-03-03T08:19:32.123Z,7.55
2023-03-03T08:22:02.668Z,7.71
2023-03-03T08:24:30.810Z,7.29
2023-03-03T08:27:00.718Z,7.31
2023-03-03T08:29:29.222Z,7.55
2023-03-03T08:31:57.544Z,7.69
2023-03-03T08:34:25.948Z,7.82
2023-03-03T08:36:56.577Z,7.36
2023-03-03T08:39:24.985Z,7.74
2023-03-03T08:41:53.367Z,7.76
2023-03-03T08:44:23.084Z,7.69
2023-03-03T08:46:51.377Z,7.96
2023-03-03T08:49:19.842Z,7.98
2023-03-03T08:51:48.298Z,7.91
2023-03-03T08:54:16.805Z,7.93
2023-03-03T08:56:45.190Z,7.71
2023-03-03T08:59:13.568Z,7.93
2023-03-03T09:01:44.848Z,8.04
2023-03-03T09:04:13.400Z,7.86
2023-03-03T09:06:41.746Z,7.83
2023-03-03T09:09:09.894Z,8.10
2023-03-03T09:11:38.084Z,8.08
2023-03-03T09:14:11.788Z,7.90
2023-03-03T09:16:41.922Z,8.48
2023-03-03T09:19:24.946Z,8.23
2023-03-03T09:21:54.903Z,8.84
2023-03-03T09:24:29.510Z,8.17
2023-03-03T09:26:59.549Z,8.61
2023-03-03T09:29:30.233Z,8.84
2023-03-03T09:32:01.207Z,9.29
2023-03-03T09:34:41.238Z,9.03
2023-03-03T09:37:21.963Z,8.63
2023-03-03T09:39:51.995Z,9.38
2023-03-03T09:42:42.999Z,8.75
2023-03-03T09:45:25.207Z,9.56
2023-03-03T09:48:11.903Z,9.34
2023-03-03T09:50:50.141Z,8.46
2023-03-03T09:53:29.509Z,8.77
2023-03-03T09:56:00.742Z,9.25
2023-03-03T09:58:45.849Z,9.53
2023-03-03T10:01:44.871Z,10.07
2023-03-03T10:04:26.173Z,9.56
2023-03-03T10:07:03.177Z,10.37
2023-03-03T10:09:49.832Z,9.97
2023-03-03T10:12:24.178Z,9.32
2023-03-03T10:15:06.028Z,9.02
2023-03-03T10:17:46.453Z,9.70
2023-03-03T10:20:28.226Z,10.44
2023-03-03T10:23:08.154Z,10.44
2023-03-03T10:25:42.580Z,10.83
2023-03-03T10:28:58.632Z,10.87
2023-03-03T10:31:35.368Z,10.76
2023-03-03T10:34:15.631Z,10.50
2023-03-03T10:36:50.378Z,11.43
2023-03-03T10:39:41.782Z,11.54
2023-03-03T10:42:22.376Z,11.23
2023-03-03T10:45:02.300Z,11.63
2023-03-03T10:47:44.830Z,11.87
2023-03-03T10:50:22.164Z,11.76
2023-03-03T10:52:54.829Z,12.34
2023-03-03T10:55:51.026Z,12.32
2023-03-03T10:58:40.947Z,12.37
2023-03-03T11:01:15.285Z,12.23
2023-03-03T11:04:05.199Z,12.27
2023-03-03T11:06:41.236Z,12.67
2023-03-03T11:09:16.232Z,12.77
2023-03-03T11:11:58.611Z,12.87
2023-03-03T11:14:36.362Z,14.11
2023-03-03T11:17:21.612Z,12.95
2023-03-03T11:20:05.335Z,13.33
2023-03-03T11:22:40.875Z,13.07
2023-03-03T11:25:28.739Z,13.34
2023-03-03T11:28:10.465Z,14.40
2023-03-03T11:30:50.734Z,13.50
2023-03-03T11:33:22.379Z,13.35
2023-03-03T11:35:55.476Z,13.25
2023-03-03T11:38:44.367Z,13.64
2023-03-03T11:41:19.023Z,12.93
2023-03-03T11:43:52.653Z,13.25
2023-03-03T11:46:26.912Z,13.40
2023-03-03T11:48:58.128Z,13.90
2023-03-03T11:51:35.586Z,14.19
2023-03-03T11:54:07.383Z,13.82
2023-03-03T11:56:40.912Z,12.84
2023-03-03T11:59:21.682Z,13.07
2023-03-03T12:01:54.171Z,13.41
2023-03-03T12:04:27.794Z,13.32
2023-03-03T12:07:18.523Z,13.46
2023-03-03T12:09:54.194Z,13.24
2023-03-03T12:12:25.336Z,13.40
2023-03-03T12:15:05.719Z,13.37
2023-03-03T12:17:59.475Z,13.17
2023-03-03T12:20:32.884Z,13.52
2023-03-03T12:23:11.748Z,13.44
2023-03-03T12:25:42.172Z,13.22
2023-03-03T12:28:13.111Z,13.31
2023-03-03T12:31:02.991Z,13.12
2023-03-03T12:33:38.848Z,13.54
2023-03-03T12:36:17.304Z,12.76
2023-03-03T12:38:54.346Z,13.45
2023-03-03T12:41:28.472Z,13.09
2023-03-03T12:44:02.256Z,12.89
2023-03-03T12:46:42.704Z,12.93
2023-03-03T12:49:11.656Z,12.99
2023-03-03T12:51:49.662Z,12.69
2023-03-03T12:54:36.829Z,13.26
2023-03-03T12:57:15.568Z,12.72
2023-03-03T12:59:52.038Z,12.49
2023-03-03T13:02:46.448Z,13.45
2023-03-03T13:05:24.462Z,13.40
2023-03-03T13:08:06.447Z,12.75
2023-03-03T13:10:40.182Z,13.35
2023-03-03T13:13:15.319Z,13.13
2023-03-03T13:15:55.255Z,13.84
2023-03-03T13:18:35.964Z,13.71
2023-03-03T13:21:08.055Z,13.56
2023-03-03T13:23:44.776Z,13.64
2023-03-03T13:26:17.783Z,13.74
2023-03-03T13:28:57.691Z,13.61
2023-03-03T13:31:32.386Z,13.45
2023-03-03T13:34:03.569Z,13.04
2023-03-03T13:36:37.577Z,13.27
2023-03-03T13:39:15.612Z,13.46
2023-03-03T13:41:49.257Z,13.12
2023-03-03T13:44:22.311Z,13.15
2023-03-03T13:46:59.913Z,13.19
2023-03-03T13:49:42.162Z,13.18
2023-03-03T13:52:11.662Z,13.60
2023-03-03T13:54:52.878Z,13.00
2023-03-03T13:57:52.762Z,12.85
2023-03-03T14:00:27.779Z,13.40
2023-03-03T14:03:23.813Z,13.64
2023-03-03T14:05:58.688Z,13.17
2023-03-03T14:08:44.336Z,12.64
2023-03-03T14:11:23.315Z,13.23
2023-03-03T14:14:01.013Z,12.92
2023-03-03T14:16:48.062Z,13.23
2023-03-03T14:19:19.655Z,12.97
2023-03-03T14:21:57.376Z,13.04
2023-03-03T14:24:26.634Z,13.13
2023-03-03T14:26:56.497Z,13.04
2023-03-03T14:29:36.193Z,13.36
2023-03-03T14:32:21.877Z,13.07
2023-03-03T14:35:00.763Z,13.35
2023-03-03T14:37:43.311Z,12.95
2023-03-03T14:40:22.609Z,12.90
2023-03-03T14:42:58.763Z,13.18
2023-03-03T14:45:33.836Z,13.41
2023-03-03T14:48:10.516Z,13.30
2023-03-03T14:50:39.918Z,13.04
2023-03-03T14:53:22.446Z,12.76
2023-03-03T14:55:52.763Z,12.90
2023-03-03T14:58:29.965Z,12.74
2023-03-03T15:01:10.513Z,12.58
2023-03-03T15:03:39.240Z,13.00
2023-03-03T15:06:13.835Z,12.93
2023-03-03T15:08:44.416Z,13.16
2023-03-03T15:11:22.241Z,13.13
2023-03-03T15:13:50.873Z,12.99
2023-03-03T15:16:22.272Z,12.93
2023-03-03T15:19:25.006Z,13.01
2023-03-03T15:22:00.635Z,12.99
2023-03-03T15:24:36.351Z,13.03
2023-03-03T15:27:07.825Z,12.92
2023-03-03T15:29:39.540Z,12.62
2023-03-03T15:32:12.397Z,12.22
2023-03-03T15:34:45.259Z,12.42
2023-03-03T15:37:27.741Z,12.69
2023-03-03T15:40:04.315Z,12.62
2023-03-03T15:42:39.372Z,12.47
2023-03-03T15:45:18.374Z,12.90
2023-03-03T15:48:05.608Z,12.84
2023-03-03T15:50:42.197Z,12.50
2023-03-03T15:53:32.388Z,12.25
2023-03-03T15:56:19.818Z,12.54
2023-03-03T15:59:26.034Z,12.49
2023-03-03T16:02:01.962Z,12.40
2023-03-03T16:04:32.819Z,11.91
2023-03-03T16:07:05.622Z,12.30
2023-03-03T16:09:47.458Z,12.23
2023-03-03T16:12:23.003Z,11.75
2023-03-03T16:15:12.976Z,11.83
2023-03-03T16:17:47.220Z,11.77
2023-03-03T16:20:22.619Z,11.91
2023-03-03T16:23:03.210Z,11.55
2023-03-03T16:25:40.778Z,11.66
2023-03-03T16:28:16.266Z,11.94
2023-03-03T16:30:51.475Z,11.89
2023-03-03T16:33:23.483Z,11.74
2023-03-03T16:35:58.910Z,11.77
2023-03-03T16:38:32.609Z,11.86
2023-03-03T16:41:03.804Z,11.82
2023-03-03T16:43:41.710Z,11.79
2023-03-03T16:46:21.210Z,11.63
2023-03-03T16:48:54.668Z,11.53
2023-03-03T16:51:31.119Z,11.27
2023-03-03T16:54:06.600Z,10.81
2023-03-03T16:56:40.340Z,11.13
2023-03-03T16:59:43.693Z,10.50
2023-03-03T17:02:27.525Z,10.84
2023-03-03T17:05:00.555Z,10.66
2023-03-03T17:07:38.468Z,10.55
2023-03-03T17:10:16.631Z,10.75
2023-03-03T17:12:55.479Z,10.37
2023-03-03T17:15:50.997Z,10.38
2023-03-03T17:18:26.080Z,9.92
2023-03-03T17:20:58.395Z,9.83
2023-03-03T17:23:47.027Z,9.75
2023-03-03T17:26:27.286Z,10.12
2023-03-03T17:29:09.101Z,10.07
2023-03-03T17:31:44.926Z,10.29
2023-03-03T17:34:27.524Z,10.21
2023-03-03T17:37:03.193Z,10.16
2023-03-03T17:39:49.880Z,10.17
2023-03-03T17:42:23.429Z,9.89
2023-03-03T17:44:59.494Z,9.89
2023-03-03T17:47:41.602Z,9.83
2023-03-03T17:50:25.509Z,9.82
2023-03-03T17:53:12.641Z,10.22
2023-03-03T17:56:03.050Z,10.25
2023-03-03T17:58:52.097Z,10.24
2023-03-03T18:01:27.442Z,9.93
2023-03-03T18:04:08.288Z,9.92
2023-03-03T18:07:09.037Z,9.97
2023-03-03T18:09:50.053Z,10.14
2023-03-03T18:12:26.373Z,9.64
2023-03-03T18:15:07.044Z,9.84
2023-03-03T18:17:41.279Z,9.67
2023-03-03T18:20:34.223Z,10.06
2023-03-03T18:23:29.424Z,10.04
2023-03-03T18:25:59.982Z,9.80
2023-03-03T18:28:45.580Z,10.04
2023-03-03T18:31:25.822Z,10.05
2023-03-03T18:34:09.352Z,9.99
2023-03-03T18:36:53.313Z,9.38
2023-03-03T18:39:38.134Z,9.77
2023-03-03T18:42:13.355Z,9.73
2023-03-03T18:44:41.967Z,9.88
2023-03-03T18:47:10.669Z,9.57
2023-03-03T18:49:55.699Z,9.71
2023-03-03T18:52:30.954Z,9.91
2023-03-03T18:55:18.189Z,9.57
2023-03-03T18:58:28.452Z,10.16
2023-03-03T19:01:00.778Z,10.27
2023-03-03T19:03:34.274Z,10.25
2023-03-03T19:06:03.458Z,9.88
2023-03-03T19:08:46.234Z,10.04
2023-03-03T19:11:40.795Z,10.07
2023-03-03T19:14:21.093Z,9.93
2023-03-03T19:16:52.723Z,10.16
2023-03-03T19:19:22.028Z,9.84
2023-03-03T19:21:53.498Z,9.75
2023-03-03T19:24:33.869Z,9.65
2023-03-03T19:27:13.007Z,9.95
2023-03-03T19:30:08.787Z,9.79
2023-03-03T19:32:47.699Z,9.33
2023-03-03T19:35:25.745Z,9.83
2023-03-03T19:38:03.092Z,10.06
2023-03-03T19:40:42.781Z,9.83
2023-03-03T19:43:23.297Z,9.87
2023-03-03T19:46:05.211Z,10.04
2023-03-03T19:48:39.820Z,10.00
2023-03-03T19:51:16.676Z,10.01
2023-03-03T19:53:55.824Z,10.00
2023-03-03T19:56:36.923Z,9.79
2023-03-03T19:59:17.029Z,10.08
2023-03-03T20:02:00.665Z,9.65
2023-03-03T20:05:06.545Z,9.90
2023-03-03T20:07:39.595Z,10.09
2023-03-03T20:10:25.315Z,9.94
2023-03-03T20:13:03.694Z,10.06
2023-03-03T20:15:41.567Z,9.86
2023-03-03T20:19:01.070Z,9.60
2023-03-03T20:21:33.339Z,10.18
2023-03-03T20:24:21.532Z,9.67
2023-03-03T20:26:57.459Z,10.01
2023-03-03T20:29:58.453Z,9.87
2023-03-03T20:32:36.638Z,9.94
2023-03-03T20:35:17.366Z,9.92
2023-03-03T20:37:53.306Z,9.98
2023-03-03T20:40:30.989Z,9.89
2023-03-03T20:43:09.623Z,10.23
2023-03-03T20:45:50.415Z,10.07
2023-03-03T20:48:30.521Z,10.07
2023-03-03T20:51:05.141Z,9.93
2023-03-03T20:53:42.189Z,10.02
2023-03-03T20:56:15.778Z,9.83
2023-03-03T20:58:58.668Z,9.74
2023-03-03T21:01:36.385Z,9.77
2023-03-03T21:04:22.487Z,9.84
2023-03-03T21:06:51.296Z,9.93
2023-03-03T21:09:25.015Z,9.54
2023-03-03T21:11:53.345Z,9.83
2023-03-03T21:14:24.255Z,9.62
2023-03-03T21:20:53.821Z,9.83
2023-03-03T21:23:23.117Z,9.74
2023-03-03T21:25:55.379Z,9.66
2023-03-03T21:28:26.065Z,10.12
2023-03-03T21:31:09.644Z,9.74
2023-03-03T21:33:50.395Z,10.13
2023-03-03T21:36:23.373Z,10.11
2023-03-03T21:38:52.801Z,9.87
2023-03-03T21:41:21.788Z,9.91
2023-03-03T21:43:51.569Z,9.72
2023-03-03T21:46:20.901Z,9.58
2023-03-03T21:48:49.589Z,9.54
2023-03-03T21:51:20.465Z,9.52
2023-03-03T21:53:48.862Z,9.44
2023-03-03T21:56:17.305Z,9.37
2023-03-03T21:58:45.971Z,9.58
2023-03-03T22:01:14.564Z,9.49
2023-03-03T22:03:45.415Z,9.49
2023-03-03T22:06:13.657Z,9.80
2023-03-03T22:08:43.498Z,9.88
2023-03-03T22:11:11.785Z,9.88
2023-03-03T22:13:41.282Z,10.13
2023-03-03T22:16:09.718Z,9.89
2023-03-03T22:18:38.021Z,9.79
2023-03-03T22:21:06.705Z,9.73
2023-03-03T22:23:35.162Z,9.59
2023-03-03T22:26:07.783Z,9.40
2023-03-03T22:28:36.250Z,9.45
2023-03-03T22:31:04.800Z,9.60
2023-03-03T22:33:34.164Z,9.73
2023-03-03T22:36:02.496Z,9.67
2023-03-03T22:38:30.784Z,9.80
2023-03-03T22:40:59.623Z,9.70
2023-03-03T22:43:30.161Z,9.37
2023-03-03T22:45:58.686Z,9.65
2023-03-03T22:48:28.216Z,9.73
2023-03-03T22:50:57.188Z,9.27
2023-03-03T22:53:25.877Z,9.41
2023-03-03T22:55:54.180Z,9.85
2023-03-03T22:58:25.518Z,9.97
2023-03-03T23:00:58.083Z,9.93
2023-03-03T23:03:26.320Z,10.10
2023-03-03T23:05:55.080Z,9.82
2023-03-03T23:08:23.321Z,9.82
2023-03-03T23:10:52.550Z,9.79
2023-03-03T23:13:20.993Z,9.87
2023-03-03T23:15:49.197Z,9.67
2023-03-03T23:18:18.857Z,9.65
2023-03-03T23:20:47.023Z,9.20
2023-03-03T23:23:15.313Z,9.62
2023-03-03T23:25:43.851Z,9.61
2023-03-03T23:28:15.401Z,9.29
2023-03-03T23:30:43.749Z,9.30
2023-03-03T23:33:11.993Z,9.54
2023-03-03T23:35:41.750Z,9.28
2023-03-03T23:38:15.266Z,9.47
2023-03-03T23:40:43.568Z,9.59
2023-03-03T23:43:11.718Z,9.58
2023-03-03T23:45:40.037Z,9.30
2023-03-03T23:48:08.514Z,9.33
2023-03-03T23:50:38.096Z,9.35
2023-03-03T23:53:08.627Z,9.22
2023-03-03T23:55:37.773Z,9.34
2023-03-03T23:58:06.058Z,9.54
